createdAt,value
2018-08-04T00:02:22.229Z,20.17
2018-08-04T00:04:50.625Z,21.40
2018-08-04T00:07:20.832Z,22.37
2018-08-04T00:09:49.247Z,21.87
2018-08-04T00:12:17.563Z,21.50
2018-08-04T00:14:46.194Z,21.30
2018-08-04T00:17:14.595Z,21.67
2018-08-04T00:19:44.104Z,21.20
2018-08-04T00:22:12.500Z,20.47
2018-08-04T00:24:40.797Z,21.13
2018-08-04T00:27:09.225Z,21.67
2018-08-04T00:29:37.555Z,20.80
2018-08-04T00:32:05.968Z,20.50
2018-08-04T00:34:34.427Z,20.53
2018-08-04T00:37:02.877Z,21.23
2018-08-04T00:39:31.244Z,21.53
2018-08-04T00:42:00.036Z,22.30
2018-08-04T00:44:28.425Z,21.53
2018-08-04T00:46:56.760Z,21.50
2018-08-04T00:49:25.133Z,21.67
2018-08-04T00:51:53.506Z,22.20
2018-08-04T00:54:21.884Z,21.67
2018-08-04T00:56:50.203Z,22.60
2018-08-04T00:59:18.605Z,22.43
2018-08-04T01:01:46.945Z,23.63
2018-08-04T01:04:15.319Z,22.30
2018-08-04T01:06:43.692Z,23.80
2018-08-04T01:09:12.041Z,23.67
2018-08-04T01:11:40.405Z,23.43
2018-08-04T01:14:08.766Z,23.20
2018-08-04T01:16:37.103Z,23.83
2018-08-04T01:19:05.443Z,23.67
2018-08-04T01:21:35.873Z,23.60
2018-08-04T01:24:04.250Z,24.53
2018-08-04T01:26:32.582Z,24.70
2018-08-04T01:29:01.325Z,24.37
2018-08-04T01:31:29.703Z,24.53
2018-08-04T01:33:58.088Z,24.33
2018-08-04T01:36:26.443Z,23.97
2018-08-04T01:38:54.797Z,23.40
2018-08-04T01:41:23.173Z,22.27
2018-08-04T01:43:51.540Z,22.40
2018-08-04T01:46:19.910Z,22.70
2018-08-04T01:48:48.281Z,23.07
2018-08-04T01:51:16.616Z,22.00
2018-08-04T01:53:44.991Z,23.27
2018-08-04T01:56:13.355Z,21.43
2018-08-04T01:58:41.677Z,22.20
2018-08-04T02:01:10.067Z,21.53
2018-08-04T02:03:38.375Z,21.17
2018-08-04T02:06:08.847Z,22.30
2018-08-04T02:08:37.165Z,22.00
2018-08-04T02:11:05.487Z,21.60
2018-08-04T02:13:33.791Z,20.63
2018-08-04T02:16:02.140Z,20.27
2018-08-04T02:18:30.481Z,20.63
2018-08-04T02:20:58.793Z,21.17
2018-08-04T02:23:27.166Z,19.33
2018-08-04T02:25:55.558Z,19.13
2018-08-04T02:28:23.876Z,18.77
2018-08-04T02:30:52.208Z,19.33
2018-08-04T02:33:20.511Z,18.30
2018-08-04T02:35:48.881Z,17.77
2018-08-04T02:38:17.185Z,18.57
2018-08-04T02:40:45.539Z,19.03
2018-08-04T02:43:13.910Z,18.13
2018-08-04T02:45:42.276Z,18.10
2018-08-04T02:48:10.641Z,17.73
2018-08-04T02:50:38.986Z,18.50
2018-08-04T02:53:07.319Z,17.60
2018-08-04T02:55:35.642Z,18.50
2018-08-04T02:58:04.025Z,18.50
2018-08-04T03:00:32.310Z,18.67
2018-08-04T03:03:00.779Z,18.00
2018-08-04T03:05:29.085Z,19.67
2018-08-04T03:07:57.387Z,18.87
2018-08-04T03:10:25.786Z,18.10
2018-08-04T03:12:54.124Z,16.47
2018-08-04T03:15:22.427Z,17.80
2018-08-04T03:17:50.868Z,16.47
2018-08-04T03:20:19.194Z,16.23
2018-08-04T03:22:47.586Z,16.43
2018-08-04T03:25:15.970Z,16.50
2018-08-04T03:27:44.331Z,16.00
2018-08-04T03:30:12.690Z,16.33
2018-08-04T03:32:40.982Z,16.70
2018-08-04T03:35:09.382Z,16.17
2018-08-04T03:37:37.761Z,17.13
2018-08-04T03:40:06.134Z,15.67
2018-08-04T03:42:34.459Z,16.17
2018-08-04T03:45:02.793Z,15.77
2018-08-04T03:47:31.143Z,15.73
2018-08-04T03:49:59.504Z,15.83
2018-08-04T03:52:27.832Z,16.53
2018-08-04T03:54:56.156Z,16.00
2018-08-04T03:57:24.533Z,15.70
2018-08-04T03:59:52.839Z,16.03
2018-08-04T04:02:31.110Z,15.77
2018-08-04T04:04:59.532Z,16.70
2018-08-04T04:07:27.969Z,15.80
2018-08-04T04:09:56.302Z,15.10
2018-08-04T04:12:24.587Z,14.60
2018-08-04T04:14:53.010Z,14.93
2018-08-04T04:17:21.365Z,15.03
2018-08-04T04:19:49.648Z,13.83
2018-08-04T04:22:17.991Z,13.97
2018-08-04T04:24:46.914Z,14.90
2018-08-04T04:27:15.356Z,14.10
2018-08-04T04:29:43.665Z,13.93
2018-08-04T04:32:12.129Z,13.90
2018-08-04T04:34:40.521Z,13.37
2018-08-04T04:37:08.821Z,12.50
2018-08-04T04:39:37.197Z,12.40
2018-08-04T04:42:05.517Z,12.93
2018-08-04T04:44:33.851Z,13.10
2018-08-04T04:47:02.388Z,12.50
2018-08-04T04:49:30.838Z,12.80
2018-08-04T04:51:59.147Z,12.60
2018-08-04T04:54:27.491Z,12.63
2018-08-04T04:56:55.880Z,11.87
2018-08-04T04:59:24.261Z,12.87
2018-08-04T05:01:52.661Z,12.10
2018-08-04T05:04:20.979Z,11.17
2018-08-04T05:06:49.298Z,12.20
2018-08-04T05:09:17.653Z,11.63
2018-08-04T05:11:45.990Z,10.97
2018-08-04T05:14:14.333Z,11.70
2018-08-04T05:16:42.750Z,11.30
2018-08-04T05:19:11.135Z,10.43
2018-08-04T05:21:39.719Z,10.60
2018-08-04T05:24:08.117Z,9.80
2018-08-04T05:26:36.443Z,9.23
2018-08-04T05:29:04.797Z,9.57
2018-08-04T05:31:33.139Z,10.00
2018-08-04T05:34:01.520Z,10.70
2018-08-04T05:36:29.874Z,8.90
2018-08-04T05:38:58.204Z,9.50
2018-08-04T05:41:26.559Z,8.83
2018-08-04T05:43:54.935Z,8.87
2018-08-04T05:46:24.225Z,9.70
2018-08-04T05:48:54.194Z,9.93
2018-08-04T05:51:22.544Z,9.93
2018-08-04T05:53:50.906Z,9.50
2018-08-04T05:56:19.321Z,10.07
2018-08-04T05:58:47.757Z,9.87
2018-08-04T06:01:16.114Z,10.27
2018-08-04T06:03:44.441Z,10.73
2018-08-04T06:06:12.782Z,10.70
2018-08-04T06:08:41.146Z,10.70
2018-08-04T06:11:09.489Z,9.73
2018-08-04T06:13:37.831Z,11.07
2018-08-04T06:16:06.146Z,9.50
2018-08-04T06:18:34.573Z,10.03
2018-08-04T06:21:02.943Z,9.45
2018-08-04T06:23:31.383Z,10.40
2018-08-04T06:25:59.799Z,10.48
2018-08-04T06:28:28.176Z,10.38
2018-08-04T06:30:56.559Z,9.88
2018-08-04T06:33:24.920Z,10.03
2018-08-04T06:35:53.357Z,10.17
2018-08-04T06:38:21.681Z,10.13
2018-08-04T06:40:50.056Z,10.30
2018-08-04T06:43:18.490Z,10.23
2018-08-04T06:45:46.855Z,10.53
2018-08-04T06:48:15.263Z,11.03
2018-08-04T06:50:43.634Z,10.20
2018-08-04T06:53:12.059Z,11.20
2018-08-04T06:55:40.417Z,11.20
2018-08-04T06:58:08.744Z,11.47
2018-08-04T07:00:37.082Z,12.00
2018-08-04T07:03:07.512Z,12.60
2018-08-04T07:05:35.884Z,12.30
2018-08-04T07:08:04.456Z,11.37
2018-08-04T07:10:32.691Z,11.07
2018-08-04T07:13:01.149Z,11.43
2018-08-04T07:15:29.595Z,11.60
2018-08-04T07:17:57.862Z,12.63
2018-08-04T07:20:26.188Z,11.37
2018-08-04T07:22:54.600Z,11.80
2018-08-04T07:25:22.859Z,12.50
2018-08-04T07:27:51.221Z,12.13
2018-08-04T07:30:19.480Z,12.57
2018-08-04T07:32:48.502Z,11.97
2018-08-04T07:35:16.736Z,12.67
2018-08-04T07:37:44.970Z,12.13
2018-08-04T07:40:13.225Z,14.90
2018-08-04T07:42:41.491Z,13.20
2018-08-04T07:45:09.745Z,14.00
2018-08-04T07:47:37.999Z,12.90
2018-08-04T07:50:06.719Z,16.00
2018-08-04T07:52:34.958Z,16.17
2018-08-04T07:55:03.217Z,12.43
2018-08-04T07:57:31.688Z,11.83
2018-08-04T07:59:59.978Z,13.00
2018-08-04T08:02:28.277Z,14.33
2018-08-04T08:04:56.735Z,11.00
2018-08-04T08:07:25.721Z,11.27
2018-08-04T08:09:54.360Z,11.10
2018-08-04T08:12:23.004Z,12.27
2018-08-04T08:14:51.273Z,11.13
2018-08-04T08:17:19.804Z,10.07
2018-08-04T08:19:48.087Z,9.67
2018-08-04T08:22:16.471Z,10.23
2018-08-04T08:24:44.766Z,10.77
2018-08-04T08:27:12.985Z,10.73
2018-08-04T08:29:41.214Z,10.27
2018-08-04T08:32:09.491Z,10.63
2018-08-04T08:34:37.737Z,10.03
2018-08-04T08:37:06.020Z,10.57
2018-08-04T08:39:34.320Z,10.10
2018-08-04T08:42:02.732Z,9.80
2018-08-04T08:44:30.959Z,10.00
2018-08-04T08:46:59.186Z,10.47
2018-08-04T08:49:27.421Z,9.07
2018-08-04T08:51:55.819Z,9.37
2018-08-04T08:54:24.659Z,9.67
2018-08-04T08:56:52.981Z,9.67
2018-08-04T08:59:21.206Z,8.50
2018-08-04T09:01:49.544Z,8.30
2018-08-04T09:04:17.929Z,7.60
2018-08-04T09:06:46.159Z,6.63
2018-08-04T09:09:14.384Z,5.63
2018-08-04T09:11:42.651Z,5.30
2018-08-04T09:14:11.552Z,4.83
2018-08-04T09:16:39.814Z,4.03
2018-08-04T09:19:08.081Z,3.87
2018-08-04T09:21:37.497Z,3.47
2018-08-04T09:24:05.743Z,5.70
2018-08-04T09:26:34.091Z,5.37
2018-08-04T09:29:02.514Z,5.40
2018-08-04T09:31:30.820Z,4.87
2018-08-04T09:33:59.583Z,5.40
2018-08-04T09:36:27.830Z,6.93
2018-08-04T09:38:56.803Z,6.03
2018-08-04T09:41:26.044Z,7.17
2018-08-04T09:43:54.347Z,8.07
2018-08-04T09:46:22.679Z,7.57
2018-08-04T09:48:50.970Z,7.33
2018-08-04T09:51:19.189Z,6.47
2018-08-04T09:53:47.453Z,6.63
2018-08-04T09:56:15.688Z,7.27
2018-08-04T09:58:44.018Z,7.13
2018-08-04T10:01:44.012Z,9.20
2018-08-04T10:04:12.275Z,8.80
2018-08-04T10:06:40.993Z,8.37
2018-08-04T10:09:10.488Z,8.60
2018-08-04T10:11:38.800Z,10.13
2018-08-04T10:14:07.029Z,9.87
2018-08-04T10:16:35.429Z,9.47
2018-08-04T10:19:03.681Z,9.70
2018-08-04T10:21:31.942Z,10.63
2018-08-04T10:24:01.943Z,10.20
2018-08-04T10:26:30.238Z,10.73
2018-08-04T10:28:58.565Z,10.10
2018-08-04T10:31:26.888Z,9.10
2018-08-04T10:33:55.771Z,10.37
2018-08-04T10:36:24.040Z,10.60
2018-08-04T10:38:52.331Z,11.13
2018-08-04T10:41:21.400Z,10.87
2018-08-04T10:43:49.754Z,9.57
2018-08-04T10:46:18.030Z,9.63
2018-08-04T10:48:46.248Z,9.47
2018-08-04T10:51:15.201Z,8.70
2018-08-04T10:53:43.446Z,8.50
2018-08-04T10:56:11.732Z,9.27
2018-08-04T10:58:39.957Z,8.30
2018-08-04T11:01:08.197Z,8.07
2018-08-04T11:03:36.437Z,8.10
2018-08-04T11:06:04.686Z,7.80
2018-08-04T11:08:32.990Z,7.80
2018-08-04T11:11:01.445Z,8.17
2018-08-04T11:13:29.723Z,7.97
2018-08-04T11:15:57.959Z,8.53
2018-08-04T11:18:26.254Z,8.73
2018-08-04T11:20:54.548Z,8.40
2018-08-04T11:23:22.804Z,7.40
2018-08-04T11:25:51.046Z,7.72
2018-08-04T11:28:19.308Z,7.42
2018-08-04T11:30:47.611Z,8.28
2018-08-04T11:33:15.954Z,7.25
2018-08-04T11:35:44.201Z,6.97
2018-08-04T11:38:12.574Z,6.60
2018-08-04T11:40:40.791Z,6.90
2018-08-04T11:43:09.232Z,5.95
2018-08-04T11:45:37.554Z,5.55
2018-08-04T11:48:06.009Z,5.90
2018-08-04T11:50:34.257Z,5.72
2018-08-04T11:53:02.792Z,4.95
2018-08-04T11:55:31.045Z,4.72
2018-08-04T11:57:59.921Z,4.80
2018-08-04T12:00:28.261Z,4.70
2018-08-04T12:02:56.568Z,4.40
2018-08-04T12:05:24.907Z,6.03
2018-08-04T12:07:53.142Z,4.50
2018-08-04T12:10:21.376Z,4.35
2018-08-04T12:12:49.629Z,5.00
2018-08-04T12:15:18.027Z,4.20
2018-08-04T12:17:46.280Z,5.08
2018-08-04T12:20:14.788Z,4.80
2018-08-04T12:22:43.090Z,4.40
2018-08-04T12:25:11.334Z,4.35
2018-08-04T12:27:39.661Z,4.45
2018-08-04T12:30:08.277Z,4.58
2018-08-04T12:32:36.900Z,4.87
2018-08-04T12:35:05.413Z,4.12
2018-08-04T12:37:33.670Z,5.25
2018-08-04T12:40:02.105Z,4.47
2018-08-04T12:42:30.538Z,4.72
2018-08-04T12:44:59.552Z,4.75
2018-08-04T12:47:27.774Z,4.65
2018-08-04T12:49:56.026Z,4.83
2018-08-04T12:52:24.237Z,4.95
2018-08-04T12:54:52.565Z,4.78
2018-08-04T12:57:21.156Z,5.10
2018-08-04T12:59:49.861Z,4.55
2018-08-04T13:02:18.225Z,5.00
2018-08-04T13:04:46.718Z,5.20
2018-08-04T13:07:14.974Z,5.25
2018-08-04T13:09:43.242Z,4.90
2018-08-04T13:12:11.514Z,4.62
2018-08-04T13:14:39.828Z,4.83
2018-08-04T13:17:08.105Z,5.15
2018-08-04T13:19:36.354Z,5.12
2018-08-04T13:22:05.152Z,4.55
2018-08-04T13:24:33.313Z,4.97
2018-08-04T13:27:01.740Z,4.95
2018-08-04T13:29:30.021Z,5.40
2018-08-04T13:31:58.336Z,4.97
2018-08-04T13:34:26.616Z,4.53
2018-08-04T13:36:54.908Z,4.83
2018-08-04T13:39:23.165Z,5.45
2018-08-04T13:41:52.137Z,4.90
2018-08-04T13:44:20.450Z,5.33
2018-08-04T13:46:48.756Z,5.17
2018-08-04T13:49:16.976Z,5.17
2018-08-04T13:51:45.195Z,5.30
2018-08-04T13:54:13.541Z,4.58
2018-08-04T13:56:42.027Z,5.35
2018-08-04T13:59:10.410Z,5.55
2018-08-04T14:01:38.728Z,5.05
2018-08-04T14:04:07.080Z,5.47
2018-08-04T14:06:35.348Z,5.08
2018-08-04T14:09:04.752Z,4.70
2018-08-04T14:11:33.757Z,5.83
2018-08-04T14:14:02.142Z,5.90
2018-08-04T14:16:30.530Z,5.37
2018-08-04T14:18:58.826Z,5.50
2018-08-04T14:21:27.121Z,5.35
2018-08-04T14:23:55.679Z,5.37
2018-08-04T14:26:24.389Z,5.50
2018-08-04T14:28:52.850Z,5.80
2018-08-04T14:31:21.168Z,5.72
2018-08-04T14:33:49.427Z,5.22
2018-08-04T14:36:17.661Z,5.92
2018-08-04T14:38:45.991Z,5.47
2018-08-04T14:41:14.227Z,5.67
2018-08-04T14:43:43.081Z,5.65
2018-08-04T14:46:11.337Z,5.50
2018-08-04T14:48:39.572Z,5.08
2018-08-04T14:51:07.896Z,5.85
2018-08-04T14:53:36.197Z,6.00
2018-08-04T14:56:04.548Z,5.90
2018-08-04T14:58:32.795Z,5.40
2018-08-04T15:01:01.217Z,5.65
2018-08-04T15:03:29.582Z,5.22
2018-08-04T15:05:57.815Z,5.90
2018-08-04T15:08:26.192Z,6.08
2018-08-04T15:10:54.576Z,6.30
2018-08-04T15:13:22.851Z,6.50
2018-08-04T15:15:51.181Z,6.03
2018-08-04T15:18:19.482Z,5.97
2018-08-04T15:20:47.813Z,6.20
2018-08-04T15:23:16.148Z,6.80
2018-08-04T15:25:44.396Z,6.37
2018-08-04T15:28:12.921Z,13.38
2018-08-04T15:30:42.958Z,11.25
2018-08-04T15:33:11.426Z,9.45
2018-08-04T15:35:39.700Z,7.30
2018-08-04T15:38:07.994Z,16.02
2018-08-04T15:40:36.335Z,10.72
2018-08-04T15:43:04.666Z,8.25
2018-08-04T15:45:33.033Z,8.00
2018-08-04T15:48:01.680Z,7.40
2018-08-04T15:50:29.961Z,6.75
2018-08-04T15:52:58.215Z,7.37
2018-08-04T15:55:26.470Z,6.03
2018-08-04T15:57:54.777Z,6.30
2018-08-04T16:00:23.070Z,5.92
2018-08-04T16:02:51.379Z,6.25
2018-08-04T16:05:19.715Z,6.17
2018-08-04T16:07:48.696Z,6.00
2018-08-04T16:10:17.106Z,6.17
2018-08-04T16:12:45.388Z,6.55
2018-08-04T16:15:13.631Z,6.17
2018-08-04T16:17:41.903Z,6.47
2018-08-04T16:20:12.287Z,6.05
2018-08-04T16:22:40.898Z,6.85
2018-08-04T16:25:09.572Z,6.92
2018-08-04T16:27:38.159Z,7.53
2018-08-04T16:30:07.406Z,7.85
2018-08-04T16:32:35.709Z,7.47
2018-08-04T16:35:04.471Z,7.12
2018-08-04T16:37:32.890Z,7.03
2018-08-04T16:40:01.272Z,6.95
2018-08-04T16:42:29.647Z,6.78
2018-08-04T16:44:57.939Z,6.28
2018-08-04T16:47:26.423Z,6.92
2018-08-04T16:49:54.976Z,7.05
2018-08-04T16:52:23.361Z,6.72
2018-08-04T16:54:52.613Z,6.37
2018-08-04T16:57:20.907Z,6.50
2018-08-04T16:59:49.208Z,6.93
2018-08-04T17:02:17.461Z,8.03
2018-08-04T17:04:45.714Z,7.20
2018-08-04T17:07:13.952Z,8.63
2018-08-04T17:09:42.195Z,8.87
2018-08-04T17:12:10.474Z,8.70
2018-08-04T17:14:38.908Z,10.30
2018-08-04T17:17:07.161Z,11.20
2018-08-04T17:19:35.445Z,10.10
2018-08-04T17:22:03.823Z,9.37
2018-08-04T17:24:32.162Z,8.27
2018-08-04T17:27:00.548Z,9.10
2018-08-04T17:29:28.806Z,7.60
2018-08-04T17:31:57.082Z,8.03
2018-08-04T17:34:26.075Z,8.07
2018-08-04T17:36:54.318Z,8.13
2018-08-04T17:39:22.600Z,8.00
2018-08-04T17:41:51.301Z,7.73
2018-08-04T17:44:19.679Z,8.60
2018-08-04T17:46:47.977Z,8.40
2018-08-04T17:49:16.564Z,8.20
2018-08-04T17:51:44.999Z,8.37
2018-08-04T17:54:13.365Z,8.57
2018-08-04T17:56:41.946Z,8.33
2018-08-04T17:59:10.326Z,8.07
2018-08-04T18:01:38.702Z,8.60
2018-08-04T18:04:07.039Z,8.60
2018-08-04T18:06:35.308Z,10.63
2018-08-04T18:09:06.463Z,10.90
2018-08-04T18:11:34.714Z,10.73
2018-08-04T18:14:03.321Z,11.30
2018-08-04T18:16:32.065Z,11.87
2018-08-04T18:19:00.442Z,13.63
2018-08-04T18:21:28.693Z,11.33
2018-08-04T18:23:56.923Z,11.87
2018-08-04T18:26:25.176Z,12.57
2018-08-04T18:28:56.339Z,13.23
2018-08-04T18:31:24.820Z,13.83
2018-08-04T18:33:53.085Z,13.63
2018-08-04T18:36:21.379Z,15.00
2018-08-04T18:38:49.669Z,16.20
2018-08-04T18:41:18.061Z,18.87
2018-08-04T18:43:46.356Z,18.33
2018-08-04T18:46:14.602Z,18.77
2018-08-04T18:48:42.842Z,17.80
2018-08-04T18:51:17.709Z,15.83
2018-08-04T18:53:46.022Z,16.17
2018-08-04T18:56:15.185Z,16.57
2018-08-04T18:58:43.481Z,14.70
2018-08-04T19:01:12.196Z,15.33
2018-08-04T19:03:40.427Z,14.97
2018-08-04T19:06:09.452Z,15.37
2018-08-04T19:08:37.830Z,13.77
2018-08-04T19:11:06.096Z,12.57
2018-08-04T19:13:35.157Z,11.90
2018-08-04T19:16:03.704Z,12.50
2018-08-04T19:18:31.928Z,11.83
2018-08-04T19:21:00.202Z,11.47
2018-08-04T19:23:28.539Z,11.40
2018-08-04T19:25:56.838Z,10.90
2018-08-04T19:28:25.113Z,11.63
2018-08-04T19:30:53.381Z,11.83
2018-08-04T19:33:21.638Z,11.87
2018-08-04T19:35:49.888Z,11.90
2018-08-04T19:38:18.254Z,12.53
2018-08-04T19:40:46.534Z,12.20
2018-08-04T19:43:14.888Z,13.87
2018-08-04T19:45:43.158Z,14.40
2018-08-04T19:48:11.425Z,13.57
2018-08-04T19:50:39.864Z,13.90
2018-08-04T19:53:08.210Z,14.53
2018-08-04T19:55:36.549Z,14.73
2018-08-04T19:58:04.821Z,15.50
2018-08-04T20:00:33.194Z,16.87
2018-08-04T20:03:01.579Z,17.70
2018-08-04T20:05:29.903Z,17.33
2018-08-04T20:07:58.147Z,15.87
2018-08-04T20:10:26.386Z,15.73
2018-08-04T20:12:54.635Z,13.73
2018-08-04T20:15:23.456Z,15.13
2018-08-04T20:17:51.792Z,14.27
2018-08-04T20:20:20.041Z,14.40
2018-08-04T20:22:48.275Z,14.87
2018-08-04T20:38:23.523Z,13.67
2018-08-04T20:40:51.768Z,14.60
2018-08-04T20:43:20.029Z,14.23
2018-08-04T20:45:48.909Z,12.63
2018-08-04T20:48:17.140Z,14.13
2018-08-04T20:50:45.387Z,13.53
2018-08-04T20:53:13.757Z,14.93
2018-08-04T20:55:42.199Z,15.40
2018-08-04T20:58:10.468Z,15.73
2018-08-04T21:00:40.841Z,15.93
2018-08-04T21:03:10.553Z,17.57
2018-08-04T21:05:39.034Z,17.30
2018-08-04T21:08:08.519Z,16.73
2018-08-04T21:10:36.772Z,16.77
2018-08-04T21:13:05.047Z,17.07
2018-08-04T21:15:33.285Z,17.37
2018-08-04T21:18:01.705Z,16.87
2018-08-04T21:20:30.364Z,17.43
2018-08-04T21:22:58.589Z,16.50
2018-08-04T21:25:26.913Z,16.10
2018-08-04T21:27:55.177Z,15.40
2018-08-04T21:30:23.426Z,15.37
2018-08-04T21:32:51.718Z,15.33
2018-08-04T21:35:19.958Z,16.60
2018-08-04T21:37:48.246Z,15.23
2018-08-04T21:40:16.480Z,16.27
2018-08-04T21:42:44.760Z,17.37
2018-08-04T21:45:13.010Z,16.23
2018-08-04T21:47:41.247Z,16.73
2018-08-04T21:50:09.489Z,16.17
2018-08-04T21:52:37.782Z,15.97
2018-08-04T21:55:06.040Z,15.90
2018-08-04T21:57:34.289Z,15.87
2018-08-04T22:00:02.749Z,15.90
2018-08-04T22:02:31.756Z,17.07
2018-08-04T22:05:00.822Z,18.30
2018-08-04T22:07:36.508Z,17.47
2018-08-04T22:10:04.789Z,17.87
2018-08-04T22:12:33.034Z,18.30
2018-08-04T22:15:01.317Z,18.00
2018-08-04T22:17:29.632Z,18.57
2018-08-04T22:19:57.878Z,19.30
2018-08-04T22:22:27.253Z,18.67
2018-08-04T22:24:55.501Z,19.20
2018-08-04T22:27:23.765Z,19.13
2018-08-04T22:29:52.180Z,18.60
2018-08-04T22:32:20.805Z,19.00
2018-08-04T22:34:49.230Z,19.77
2018-08-04T22:37:17.525Z,19.73
2018-08-04T22:39:46.958Z,18.83
2018-08-04T22:42:15.213Z,20.17
2018-08-04T22:44:49.111Z,20.03
2018-08-04T22:47:17.343Z,19.77
2018-08-04T22:49:45.575Z,19.63
2018-08-04T22:52:13.946Z,20.37
2018-08-04T22:54:42.302Z,22.57
2018-08-04T22:57:10.539Z,20.60
2018-08-04T22:59:39.353Z,21.23
2018-08-04T23:02:07.622Z,21.80
2018-08-04T23:04:35.930Z,20.73
2018-08-04T23:07:04.541Z,22.20
2018-08-04T23:09:32.770Z,22.63
2018-08-04T23:12:01.496Z,23.63
2018-08-04T23:14:29.932Z,24.33
2018-08-04T23:16:58.195Z,26.00
2018-08-04T23:19:27.051Z,23.53
2018-08-04T23:21:55.477Z,20.83
2018-08-04T23:24:23.754Z,22.33
2018-08-04T23:26:51.997Z,21.43
2018-08-04T23:29:20.279Z,21.30
2018-08-04T23:31:48.517Z,20.40
2018-08-04T23:34:16.767Z,21.10
2018-08-04T23:36:45.126Z,20.33
2018-08-04T23:39:13.590Z,20.50
2018-08-04T23:41:41.990Z,20.97
2018-08-04T23:44:10.338Z,20.83
2018-08-04T23:46:38.731Z,21.60
2018-08-04T23:49:09.137Z,21.73
2018-08-04T23:51:37.537Z,20.10
2018-08-04T23:54:06.058Z,19.23
2018-08-04T23:56:34.394Z,19.63
2018-08-04T23:59:02.902Z,22.03
